Home > Products > Valid Products > TAF

000
FTUS41 KBOX 312021 AAA
TAFPVD
TAF AMD
KPVD 312021Z 3120/0118 07012KT P6SM OVC040
     FM010300 04010G19KT P6SM OVC040
     FM010900 02011G21KT P6SM -SHRA OVC040
     FM011200 01011G26KT P6SM -SHRA OVC015=



000
FTUS41 KBOX 312021 AAA
TAFMHT
TAF AMD
KMHT 312021Z 3120/0118 08005KT P6SM BKN050
     FM010500 02007KT P6SM BKN040
     FM011100 01011G19KT P6SM OVC025
     FM011300 01011G20KT P6SM -SHRA OVC025
     FM011500 02012G21KT P6SM -SHRA OVC015=



000
FTUS41 KBOX 312021 AAA
TAFBDL
TAF AMD
KBDL 312021Z 3120/0124 36005KT P6SM OVC050
     FM010800 03009KT P6SM OVC050
     FM011400 03013G23KT P6SM OVC015
     FM011600 03013G23KT P6SM -SHRA OVC015
     FM012200 01013G27KT P6SM OVC015=



000
FTUS41 KBOX 312021 AAA
TAFACK
TAF AMD
KACK 312021Z 3120/0118 07012KT P6SM BKN025
     FM010400 06018KT P6SM -SHRA OVC035
     FM010600 05018KT P6SM -SHRA OVC015
     FM010900 04020KT P6SM -SHRA OVC025
     FM011500 04026KT 3SM -SHRA OVC008=



000
FTUS41 KBOX 312020 AAA
TAFBOS
TAF AMD
KBOS 312020Z 3120/0124 07009KT P6SM OVC050
     FM010500 03012G19KT P6SM OVC050
     FM010900 02013G21KT P6SM OVC025
     FM011200 01013G26KT P6SM -SHRA OVC015
     FM011800 03020G35KT 3SM SHRA OVC008
     FM012300 01020G41KT 3SM -SHRA OVC015=



000
FTUS41 KBOX 311729
TAFBDL
TAF
KBDL 311729Z 3118/0124 36005KT P6SM OVC050
     FM010800 03009KT P6SM OVC050
     FM011400 03013G23KT P6SM OVC015
     FM011600 03013G23KT P6SM -SHRA OVC015
     FM012200 01013G27KT P6SM OVC015=



000
FTUS41 KBOX 311729
TAFPVD
TAF
KPVD 311729Z 3118/0118 07008KT P6SM OVC050
     FM010300 04010G19KT P6SM OVC050
     FM010900 02011G21KT P6SM -SHRA OVC050
     FM011200 01011G26KT P6SM -SHRA OVC015=



000
FTUS41 KBOX 311729
TAFBAF
TAF
KBAF 311729Z 3118/0118 03005KT P6SM OVC050
     FM010900 03009KT P6SM OVC090
     FM011500 03012G22KT P6SM OVC015
     FM011700 03013G22KT P6SM -SHRA OVC015=



000
FTUS41 KBOX 311729
TAFBOS
TAF
KBOS 311729Z 3118/0124 07009KT P6SM OVC050
     FM010500 03012G19KT P6SM OVC050
     FM010900 02013G21KT P6SM OVC025
     FM011200 01013G26KT P6SM -SHRA OVC015
     FM011800 03020G35KT 3SM SHRA OVC008
     FM012300 01020G41KT 3SM -SHRA OVC015=



000
FTUS41 KBOX 311729
TAFORH
TAF
KORH 311729Z 3118/0118 08006KT P6SM OVC050
     FM010400 04008KT P6SM OVC030
     FM011200 02013KT P6SM -SHRA OVC025
     FM011500 03014G22KT P6SM -SHRA OVC015=



000
FTUS41 KBOX 311729
TAFACK
TAF
KACK 311729Z 3118/0118 07012KT P6SM BKN040
     FM010400 06018KT P6SM -SHRA OVC035
     FM010600 05018KT P6SM -SHRA OVC015
     FM010900 04020KT P6SM -SHRA OVC025
     FM011500 04026KT 3SM -SHRA OVC008=



000
FTUS41 KBOX 311729
TAFMHT
TAF
KMHT 311729Z 3118/0118 08005KT P6SM BKN045
     FM010500 02007KT P6SM BKN040
     FM011100 01011G19KT P6SM OVC025
     FM011300 01011G20KT P6SM -SHRA OVC025
     FM011500 02012G21KT P6SM -SHRA OVC015=



000
FTUS41 KBOX 311129
TAFBAF
TAF
KBAF 311129Z 3112/0112 00000KT P6SM OVC045
     FM311400 02004KT P6SM BKN050
     FM311800 08005KT P6SM OVC050
     FM010300 04005KT P6SM OVC025=



000
FTUS41 KBOX 311129
TAFBDL
TAF
KBDL 311129Z 3112/0118 00000KT P6SM FEW060 FEW150
     FM311400 VRB03KT P6SM BKN080
     FM010300 03005KT P6SM OVC025
     FM011200 01010KT P6SM OVC025
     FM011700 01011G19KT P6SM -RA OVC025=



000
FTUS41 KBOX 311129
TAFBOS
TAF
KBOS 311129Z 3112/0118 35006KT P6SM BKN060
     FM311300 02006KT P6SM BKN050
     FM311600 06008KT P6SM BKN050
     FM010600 03012KT P6SM OVC050
     FM011200 02015KT P6SM -RA OVC025=



000
FTUS41 KBOX 311129
TAFPVD
TAF
KPVD 311129Z 3112/0112 34006KT P6SM SCT060
     FM311400 04006KT P6SM BKN050
     FM010500 03010KT P6SM OVC045
     FM010600 02010KT P6SM OVC025
     FM011000 02012KT P6SM -RA OVC050=



000
FTUS41 KBOX 311129
TAFMHT
TAF
KMHT 311129Z 3112/0112 VRB03KT P6SM BKN060
     FM311600 06004KT P6SM BKN040
     FM010900 01008KT P6SM OVC050=



000
FTUS41 KBOX 311129
TAFORH
TAF
KORH 311129Z 3112/0112 02005KT P6SM FEW017 OVC050
     FM010100 06006KT P6SM OVC025
     FM010300 04006KT P6SM OVC015
     FM010600 02007KT P6SM OVC025
     FM010900 02008KT 3SM BR OVC025=



000
FTUS41 KBOX 311129
TAFACK
TAF
KACK 311129Z 3112/0112 05004KT P6SM BKN050
     FM311300 06007KT P6SM BKN060
     FM311600 06012KT P6SM BKN050
     FM010500 05016KT P6SM -RA OVC025
     FM010900 04017G25KT 3SM -RA BR OVC050=



000
FTUS41 KBOX 310852 AAA
TAFORH
TAF AMD
KORH 310852Z 3109/0106 04004KT P6SM FEW035 OVC050
     FM311600 05005KT P6SM BKN050
     FM010100 06006KT P6SM OVC025
     FM010300 04006KT P6SM OVC015=



000
FTUS41 KBOX 310852 AAA
TAFPVD
TAF AMD
KPVD 310852Z 3109/0106 36004KT P6SM OVC050
     FM311100 02005KT P6SM SCT050
     FM311400 03006KT P6SM BKN050
     FM311800 07008KT P6SM OVC050
     FM010500 03010KT P6SM OVC045=



000
FTUS41 KBOX 310852 AAA
TAFMHT
TAF AMD
KMHT 310852Z 3109/0106 00000KT P6SM OVC060
     FM010500 02006KT P6SM OVC045=



000
FTUS41 KBOX 310852 AAA
TAFBDL
TAF AMD
KBDL 310852Z 3109/0112 00000KT P6SM SCT060
     FM311500 04005KT P6SM BKN060
     FM010300 03005KT P6SM OVC025=



000
FTUS41 KBOX 310852 AAA
TAFBAF
TAF AMD
KBAF 310852Z 3109/0106 00000KT P6SM FEW060
     FM311600 VRB03KT P6SM BKN060
     FM010300 04005KT P6SM OVC025=



000
FTUS41 KBOX 310852 AAA
TAFACK
TAF AMD
KACK 310852Z 3109/0106 04004KT P6SM SCT050
     FM311300 05007KT P6SM BKN050
     FM311800 07011KT P6SM BKN050
     FM010200 06016KT P6SM OVC025
     FM010300 06016KT P6SM OVC040
     FM010500 05016KT P6SM -RA OVC025=



000
FTUS41 KBOX 310852 AAA
TAFBOS
TAF AMD
KBOS 310852Z 3109/0112 02006KT P6SM OVC060
     FM311400 04007KT P6SM BKN050
     FM311800 08009KT P6SM BKN050
     FM010500 04011KT P6SM OVC050=



000
FTUS41 KBOX 310541
TAFBDL
TAF
KBDL 310541Z 3106/0112 00000KT P6SM SCT200
     FM311800 06005KT P6SM BKN070
     FM010900 01007KT P6SM OVC025=



000
FTUS41 KBOX 310541
TAFORH
TAF
KORH 310541Z 3106/0106 32007KT P6SM SCT040
     FM310900 31005KT P6SM BKN060
     FM010300 04006KT P6SM OVC020=



000
FTUS41 KBOX 310541
TAFBAF
TAF
KBAF 310541Z 3106/0106 00000KT P6SM FEW250
     FM310800 00000KT 2SM BR FEW006 SCT200
     FM311100 VRB03KT 4SM BR SCT200
     FM311300 VRB03KT P6SM BKN150=



000
FTUS41 KBOX 310541
TAFBOS
TAF
KBOS 310541Z 3106/0112 35006KT P6SM BKN060
     FM311400 04007KT P6SM SCT050 BKN250
     FM311800 08009KT P6SM SCT040 BKN140
     FM010400 04012KT P6SM OVC040=



000
FTUS41 KBOX 310541
TAFMHT
TAF
KMHT 310541Z 3106/0106 00000KT P6SM OVC050
     FM311400 VRB03KT P6SM BKN050
     FM010500 03006KT P6SM OVC040=



000
FTUS41 KBOX 310541
TAFACK
TAF
KACK 310541Z 3106/0106 VRB03KT P6SM BKN060
     FM311400 05007KT P6SM BKN100
     FM311800 07011KT P6SM BKN050
     FM010300 06016KT P6SM OVC025
     FM010500 05016KT P6SM -SHRA OVC025=



000
FTUS41 KBOX 310541
TAFPVD
TAF
KPVD 310541Z 3106/0106 VRB03KT P6SM SCT040
     FM311700 06007KT P6SM BKN250
     FM010300 04009KT P6SM OVC025=



000
FTUS41 KBOX 302343 AAA
TAFMHT
TAF AMD
KMHT 302343Z 3100/3124 VRB03KT P6SM BKN050
     FM310400 00000KT P6SM FEW050
     FM311200 00000KT P6SM SCT150=



000
FTUS41 KBOX 302321
TAFACK
TAF
KACK 302321Z 3100/3124 28005KT P6SM FEW050
     FM310300 34005KT P6SM SKC
     FM311300 04005KT P6SM SCT150
     FM311700 06009KT P6SM BKN250=



000
FTUS41 KBOX 302321
TAFMHT
TAF
KMHT 302321Z 3100/3124 VRB03KT P6SM BKN050
     FM310400 00000KT P6SM FEW050
     FM311200 00000KT P6SM SCT150=



000
FTUS41 KBOX 302321
TAFPVD
TAF
KPVD 302321Z 3100/3124 29004KT P6SM FEW050
     FM310600 VRB03KT P6SM SCT200
     FM311700 05007KT P6SM BKN250=



000
FTUS41 KBOX 302321
TAFBOS
TAF
KBOS 302321Z 3100/0106 32006KT P6SM SCT050
     FM310800 36006KT P6SM SCT110
     FM311500 04006KT P6SM BKN150
     FM311800 08008KT P6SM OVC140
     FM010400 04012KT P6SM OVC040=



000
FTUS41 KBOX 302321
TAFBAF
TAF
KBAF 302321Z 3100/3124 00000KT P6SM FEW050
     FM312100 07005KT P6SM OVC050=



000
FTUS41 KBOX 302321
TAFORH
TAF
KORH 302321Z 3100/3124 30005KT P6SM FEW040
     FM310700 35004KT P6SM SKC
     FM311600 05005KT P6SM BKN150=



000
FTUS41 KBOX 302321
TAFBDL
TAF
KBDL 302321Z 3100/0106 30004KT P6SM SCT050
     FM310400 VRB03KT P6SM SCT250
     FM311800 05004KT P6SM OVC070=



000
FTUS41 KBOX 302007 AAA
TAFPVD
TAF AMD
KPVD 302007Z 3020/3118 28010KT P6SM SCT250
     FM310000 32004KT P6SM SCT150
     FM311300 02004KT P6SM SCT250=



000
FTUS41 KBOX 302007 AAA
TAFMHT
TAF AMD
KMHT 302007Z 3020/3118 32010KT P6SM BKN070
     FM302200 32004KT P6SM SCT150
     FM311700 07004KT P6SM BKN150=



000
FTUS41 KBOX 302006 AAA
TAFBOS
TAF AMD
KBOS 302006Z 3020/3124 30010KT P6SM BKN070
     FM310800 36006KT P6SM SCT250
     FM312100 07010KT P6SM OVC050=



000
FTUS41 KBOX 302006 AAA
TAFBDL
TAF AMD
KBDL 302006Z 3020/3124 30010KT P6SM BKN050
     FM310300 VRB03KT P6SM SCT250
     FM311800 05004KT P6SM OVC070=



000
FTUS41 KBOX 301728
TAFPVD
TAF
KPVD 301728Z 3018/3118 31010KT P6SM SCT250
     FM310000 32004KT P6SM SCT150
     FM311300 02004KT P6SM SCT250=



000
FTUS41 KBOX 301728
TAFBOS
TAF
KBOS 301728Z 3018/3124 31010KT P6SM SCT250
     FM310800 36006KT P6SM SCT250
     FM312100 07010KT P6SM OVC050=



000
FTUS41 KBOX 301728
TAFBAF
TAF
KBAF 301728Z 3018/3118 31012KT P6SM BKN050
     FM310100 VRB03KT P6SM SCT150=



000
FTUS41 KBOX 301728
TAFMHT
TAF
KMHT 301728Z 3018/3118 32010KT P6SM BKN070
     FM302200 32004KT P6SM SCT150
     FM311700 07004KT P6SM BKN150=



000
FTUS41 KBOX 301728
TAFACK
TAF
KACK 301728Z 3018/3118 33010KT P6SM FEW250
     FM302200 33006KT P6SM FEW250
     FM311300 04005KT P6SM SCT150
     FM311700 06009KT P6SM BKN250=



000
FTUS41 KBOX 301728
TAFBDL
TAF
KBDL 301728Z 3018/3124 31010KT P6SM BKN050
     FM310300 VRB03KT P6SM SCT250
     FM311800 05004KT P6SM OVC070=



000
FTUS41 KBOX 301728
TAFORH
TAF
KORH 301728Z 3018/3118 29008KT P6SM BKN050
     FM310300 32004KT P6SM SCT150
     FM311300 02004KT P6SM BKN250=



000
FTUS41 KBOX 301728
TAFORH
TAF
KORH 301728Z 3018/3118 29008KT P6SM BKN050
     FM310300 32004KT P6SM SCT150
     FM311300 02004KT P6SM BKN250=



000
FTUS41 KBOX 301728
TAFBAF
TAF
KBAF 301728Z 3018/3118 31012KT P6SM BKN050
     FM310100 VRB03KT P6SM SCT150=



000
FTUS41 KBOX 301728
TAFACK
TAF
KACK 301728Z 3018/3118 33010KT P6SM FEW250
     FM302200 33006KT P6SM FEW250
     FM311300 04005KT P6SM SCT150
     FM311700 06009KT P6SM BKN250=



000
FTUS41 KBOX 301728
TAFMHT
TAF
KMHT 301728Z 3018/3118 32010KT P6SM BKN070
     FM302200 32004KT P6SM SCT150
     FM311700 07004KT P6SM BKN150=



000
FTUS41 KBOX 301728
TAFBDL
TAF
KBDL 301728Z 3018/3124 31010KT P6SM BKN050
     FM310300 VRB03KT P6SM SCT250
     FM311800 05004KT P6SM OVC070=



000
FTUS41 KBOX 301728
TAFPVD
TAF
KPVD 301728Z 3018/3118 31010KT P6SM SCT250
     FM310000 32004KT P6SM SCT150
     FM311300 02004KT P6SM SCT250=



000
FTUS41 KBOX 301728
TAFBOS
TAF
KBOS 301728Z 3018/3124 31010KT P6SM SCT250
     FM310800 36006KT P6SM SCT250
     FM312100 07010KT P6SM OVC050=



000
FTUS41 KBOX 301508 AAB
TAFBOS
TAF AMD
KBOS 301508Z 3015/3118 32012G17KT P6SM FEW200
     FM302100 31007KT P6SM SCT050
     FM310400 34005KT P6SM SCT250
     FM310900 36005KT P6SM SCT040
     FM311100 01005KT P6SM BKN090=



000
FTUS41 KBOX 301459 AAA
TAFMHT
TAF AMD
KMHT 301459Z 3015/3112 27004KT P6SM BKN070
     FM302300 33005KT P6SM BKN250=



000
FTUS41 KBOX 301459 AAA
TAFPVD
TAF AMD
KPVD 301459Z 3015/3112 30010KT P6SM FEW080 SCT250
     FM310700 36004KT P6SM SCT250
     FM311100 01004KT P6SM SCT050=



000
FTUS41 KBOX 301456 AAA
TAFBDL
TAF AMD
KBDL 301456Z 3015/3118 32006KT P6SM SCT250
     FM310600 00000KT P6SM SCT060
     FM311200 VRB03KT P6SM BKN025
     FM311400 VRB03KT P6SM BKN050=



000
FTUS41 KBOX 301435 AAA
TAFBOS
TAF AMD
KBOS 301435Z 3015/3118 28012KT P6SM FEW200
     FM302100 31007KT P6SM SCT050
     FM310400 34005KT P6SM SCT250
     FM310900 36005KT P6SM SCT040
     FM311100 01005KT P6SM BKN090=



000
FTUS41 KBOX 301140
TAFBDL
TAF
KBDL 301140Z 3012/3118 00000KT P6SM BKN080
     FM301500 32006KT P6SM SCT250
     FM310600 00000KT P6SM SCT060
     FM311200 VRB03KT P6SM BKN025
     FM311400 VRB03KT P6SM BKN050=



000
FTUS41 KBOX 301140
TAFMHT
TAF
KMHT 301140Z 3012/3112 00000KT P6SM FEW070
     FM301900 31007KT P6SM SCT040
     FM310200 VRB03KT P6SM SCT250
     FM310800 00000KT P6SM SCT040=



000
FTUS41 KBOX 301140
TAFBOS
TAF
KBOS 301140Z 3012/3118 28007KT P6SM FEW200
     FM302100 31007KT P6SM SCT050
     FM310400 34005KT P6SM SCT250
     FM310900 36005KT P6SM SCT040
     FM311100 01005KT P6SM BKN090=



000
FTUS41 KBOX 301140
TAFBAF
TAF
KBAF 301140Z 3012/3112 16003KT P6SM OVC080
     FM301400 31007KT P6SM FEW060
     FM302200 32005KT P6SM SCT250
     FM310800 00000KT P6SM SCT050
     FM311000 00000KT P6SM BKN050=



000
FTUS41 KBOX 301140
TAFORH
TAF
KORH 301140Z 3012/3112 27010KT P6SM SKC
     FM301800 30008KT P6SM BKN040
     FM302000 30007KT P6SM SCT040
     FM310900 36004KT P6SM SCT040=



000
FTUS41 KBOX 301140
TAFPVD
TAF
KPVD 301140Z 3012/3112 30003KT P6SM FEW080 SCT250
     FM302100 32006KT P6SM FEW040
     FM310100 34005KT P6SM FEW250
     FM311100 01004KT P6SM SCT050=



000
FTUS41 KBOX 301140
TAFACK
TAF
KACK 301140Z 3012/3112 33010KT P6SM SKC
     FM301800 32008KT P6SM FEW250
     FM310000 32007KT P6SM SCT040
     FM310400 36006KT P6SM SCT030
     FM310800 03005KT P6SM BKN030
     FM311000 04005KT P6SM BKN040=



000
FTUS41 KBOX 300858 AAA
TAFBDL
TAF AMD
KBDL 300858Z 3009/3112 00000KT P6SM FEW080 SCT250
     FM301700 31006KT P6SM SCT250
     FM302000 32006KT P6SM SCT040
     FM302200 32006KT P6SM SCT250
     FM310600 00000KT P6SM SCT060=



000
FTUS41 KBOX 300858 AAA
TAFBOS
TAF AMD
KBOS 300858Z 3009/3112 29009KT P6SM SCT250
     FM301800 31007KT P6SM SCT050
     FM310400 34005KT P6SM SCT250
     FM310900 36005KT P6SM SCT040
     FM311100 01005KT P6SM BKN090=



000
FTUS41 KBOX 300858 AAB
TAFBAF
TAF AMD
KBAF 300858Z 3009/3106 00000KT 1/2SM FG OVC002
     FM301200 00000KT 2SM BR SCT002 BKN250
     FM301300 VRB03KT P6SM SCT250
     FM301700 31007KT P6SM SCT250
     FM301900 32007KT P6SM SCT050
     FM302200 32005KT P6SM SCT250=



000
FTUS41 KBOX 300858 AAA
TAFPVD
TAF AMD
KPVD 300858Z 3009/3106 30004KT P6SM SCT250
     FM302100 32006KT P6SM FEW040
     FM310100 33005KT P6SM FEW250
     FM310400 35004KT P6SM SCT040
     FM310500 35004KT P6SM SCT250=



000
FTUS41 KBOX 300858 AAA
TAFORH
TAF AMD
KORH 300858Z 3009/3106 28010KT P6SM FEW250
     FM301800 30008KT P6SM BKN040
     FM302000 30007KT P6SM SCT040=



000
FTUS41 KBOX 300858 AAA
TAFMHT
TAF AMD
KMHT 300858Z 3009/3106 VRB03KT P6SM SCT250
     FM301700 31006KT P6SM SCT050
     FM310200 VRB03KT P6SM SCT250=



000
FTUS41 KBOX 300858 AAA
TAFACK
TAF AMD
KACK 300858Z 3009/3106 32011KT P6SM BKN070
     FM301500 33009KT P6SM SCT250
     FM310000 32007KT P6SM SCT040
     FM310400 36006KT P6SM SCT030=



000
FTUS41 KBOX 300607 AAA
TAFBAF
TAF AMD
KBAF 300607Z 3006/3106 00000KT 3/4SM BR OVC002
     FM301100 00000KT 2SM BR SCT002 BKN250
     FM301300 00000KT P6SM SCT250
     FM301600 31006KT P6SM SCT250
     FM302100 32006KT P6SM SCT250=



000
FTUS41 KBOX 300540
TAFBOS
TAF
KBOS 300540Z 3006/3112 29008KT P6SM BKN250
     FM310000 33006KT P6SM SCT250
     FM310900 36005KT P6SM SCT040
     FM311100 01005KT P6SM BKN090=



000
FTUS41 KBOX 300540
TAFBDL
TAF
KBDL 300540Z 3006/3112 VRB03KT P6SM SCT250
     FM301700 32007KT P6SM SCT250
     FM310400 VRB03KT P6SM SCT250
     FM311100 VRB03KT P6SM SCT050=



000
FTUS41 KBOX 300540
TAFORH
TAF
KORH 300540Z 3006/3106 28006KT P6SM SCT250
     FM301800 30008KT P6SM SCT040
     FM302300 31006KT P6SM SCT250
     FM310100 32006KT P6SM SCT050=



000
FTUS41 KBOX 300540
TAFPVD
TAF
KPVD 300540Z 3006/3106 28007KT P6SM BKN080
     FM301200 31008KT P6SM BKN150=



000
FTUS41 KBOX 300540
TAFACK
TAF
KACK 300540Z 3006/3106 32014G22KT P6SM SCT025 OVC045
     FM300800 32012KT P6SM OVC050
     FM301600 33009KT P6SM SCT200
     FM310000 32007KT P6SM SCT030
     FM310400 36006KT P6SM SCT030=



000
FTUS41 KBOX 300540
TAFMHT
TAF
KMHT 300540Z 3006/3106 27005KT P6SM FEW250
     FM301800 31007KT P6SM BKN030
     FM301900 31007KT P6SM SCT030
     FM310100 33004KT P6SM SCT250=



000
FTUS41 KBOX 300540
TAFBAF
TAF
KBAF 300540Z 3006/3106 00000KT 2SM BR FEW250
     FM300700 00000KT 1SM BR SCT250
     FM301000 00000KT 3SM BR SCT250
     FM301200 00000KT P6SM SCT250
     FM301600 31006KT P6SM SCT250
     FM302100 32006KT P6SM SCT250=



000
FTUS41 KBOX 300326 AAB
TAFACK
TAF AMD
KACK 300326Z 3003/3024 34012KT P6SM SCT009 OVC015
     FM300500 32012KT P6SM SCT015 BKN025
     FM300700 33010KT P6SM BKN040
     FM301400 33008KT P6SM SCT200=



000
FTUS41 KBOX 300202 AAA
TAFACK
TAF AMD
KACK 300202Z 3002/3024 24008KT 4SM BR BKN009 OVC015
     FM300400 29010KT P6SM SCT009 BKN040
     FM300600 31009KT P6SM BKN040
     FM301400 33008KT P6SM SCT200=



000
FTUS41 KBOX 292326
TAFBAF
TAF
KBAF 292326Z 3000/3024 VRB03KT P6SM BKN080
     FM300400 VRB03KT P6SM SCT200
     FM301800 32006KT P6SM SCT025
     FM302100 31006KT P6SM SCT250=



000
FTUS41 KBOX 292326
TAFBDL
TAF
KBDL 292326Z 3000/3106 28004KT P6SM BKN080
     FM300500 00000KT P6SM SCT200
     FM301800 32004KT P6SM SCT030
     FM301900 32004KT P6SM SCT250=



000
FTUS41 KBOX 292326
TAFPVD
TAF
KPVD 292326Z 3000/3024 31007KT P6SM SCT050 BKN080
     FM300100 28006KT P6SM -SHRA BKN050
     FM300400 30005KT P6SM BKN080
     FM300900 32004KT P6SM SCT250
     FM301800 31006KT P6SM FEW030=



000
FTUS41 KBOX 292326
TAFBOS
TAF
KBOS 292326Z 3000/3106 30010KT P6SM -SHRA OVC050
     FM300400 28007KT P6SM BKN110
     FM300700 29006KT P6SM FEW050 SCT250
     FM302000 31007KT P6SM SCT050
     FM310000 32006KT P6SM SCT250=



000
FTUS41 KBOX 292326
TAFORH
TAF
KORH 292326Z 3000/3024 27007KT P6SM -SHRA OVC050
     FM300100 28007KT P6SM BKN050
     FM300400 28007KT P6SM SCT200
     FM301800 30007KT P6SM BKN050
     FM302100 31005KT P6SM SCT040
     FM302300 31005KT P6SM SCT250=



000
FTUS41 KBOX 292326
TAFACK
TAF
KACK 292326Z 3000/3024 23012KT P6SM BKN015
     FM300200 28010G21KT P6SM BKN040
     FM300400 31009KT P6SM -SHRA BKN040
     FM300700 32007KT P6SM OVC040
     FM301400 33008KT P6SM SCT200=



000
FTUS41 KBOX 292326
TAFMHT
TAF
KMHT 292326Z 3000/3024 29003KT P6SM -SHRA OVC050
     FM300100 28005KT P6SM BKN050
     FM300400 VRB03KT P6SM SCT250
     FM301800 31006KT P6SM SCT030=



000
FTUS41 KBOX 292220 AAC
TAFBOS
TAF AMD
KBOS 292220Z 2922/3024 31011G21KT P6SM FEW025 SCT035 BKN045
     FM300000 31010KT P6SM SCT035 BKN060
     FM300600 28007KT P6SM SCT200
     FM301800 32006KT P6SM SCT050=



000
FTUS41 KBOX 292005 AAB
TAFBOS
TAF AMD
KBOS 292005Z 2920/3024 24010KT P6SM BKN050
     FM292030 31011G20KT P6SM OVC035
     FM292200 31006KT P6SM OVC040
     FM300600 28007KT P6SM SCT200
     FM301800 32006KT P6SM SCT050=



000
FTUS41 KBOX 291959 AAA
TAFBDL
TAF AMD
KBDL 291959Z 2920/3024 34012KT P6SM -RA SCT025 OVC040
     FM300000 31011KT P6SM OVC060
     FM300500 32007KT P6SM SCT250
     FM301800 32004KT P6SM SCT050=



000
FTUS41 KBOX 291959 AAA
TAFBAF
TAF AMD
KBAF 291959Z 2920/3018 33012KT P6SM -RA SCT025 OVC035
     FM292300 33007KT P6SM OVC050
     FM300400 VRB03KT P6SM SCT250=



000
FTUS41 KBOX 291959 AAA
TAFPVD
TAF AMD
KPVD 291959Z 2920/3018 21008KT P6SM BKN200
     FM292300 31008KT P6SM OVC040
     FM300700 30005KT P6SM SCT250=



000
FTUS41 KBOX 291959 AAA
TAFBOS
TAF AMD
KBOS 291959Z 2920/3024 24010KT P6SM BKN050
     FM292100 29007KT P6SM OVC035
     FM292300 31006KT P6SM OVC040
     FM300600 28007KT P6SM SCT200
     FM301800 32006KT P6SM SCT050=



000
FTUS41 KBOX 291959 AAA
TAFORH
TAF AMD
KORH 291959Z 2920/3018 32008KT P6SM -RA OVC025
     FM300000 30011G22KT P6SM OVC050
     FM300200 29007KT P6SM BKN090
     FM300400 29007KT P6SM SCT250=



000
FTUS41 KBOX 291959 AAA
TAFACK
TAF AMD
KACK 291959Z 2920/3018 21016KT P6SM BKN200
     FM300100 26014KT P6SM BKN200
     FM300200 31012KT P6SM BKN200
     FM300300 34011KT P6SM OVC025
     FM300700 33012KT P6SM OVC040
     FM301200 33008KT P6SM SCT050=



000
FTUS41 KBOX 291959 AAA
TAFMHT
TAF AMD
KMHT 291959Z 2920/3018 31007KT P6SM OVC035
     FM300300 27005KT P6SM SCT250
     FM301200 00000KT P6SM FEW250
     FM301500 32006KT P6SM FEW250=



000
FTUS41 KBOX 291724
TAFBDL
TAF
KBDL 291724Z 2918/3024 22004KT P6SM BKN080
     FM292000 28007KT P6SM -RA OVC060
     FM292200 28006KT P6SM OVC060
     FM300500 31004KT P6SM SCT250=



000
FTUS41 KBOX 291724
TAFBAF
TAF
KBAF 291724Z 2918/3018 21004KT P6SM OVC080
     FM292000 28005KT P6SM -RA OVC060
     FM292200 28006KT P6SM OVC060
     FM300500 31004KT P6SM SCT250=



000
FTUS41 KBOX 291724
TAFORH
TAF
KORH 291724Z 2918/3018 22007KT P6SM BKN200
     FM292100 27009KT P6SM -RA BKN050
     FM292300 28009KT P6SM BKN050
     FM300600 29007KT P6SM SCT250=



000
FTUS41 KBOX 291724
TAFPVD
TAF
KPVD 291724Z 2918/3018 22006KT P6SM BKN200
     FM292300 29006KT P6SM OVC050
     FM300900 32006KT P6SM SCT250=



000
FTUS41 KBOX 291724
TAFACK
TAF
KACK 291724Z 2918/3018 21015G22KT P6SM BKN250
     FM300200 26013KT P6SM BKN200
     FM300500 30011KT P6SM OVC040
     FM301100 34008KT P6SM BKN050=



000
FTUS41 KBOX 291724
TAFMHT
TAF
KMHT 291724Z 2918/3018 23004KT P6SM BKN070
     FM292100 28008KT P6SM BKN050
     FM300500 28004KT P6SM SCT250=



000
FTUS41 KBOX 291724
TAFBOS
TAF
KBOS 291724Z 2918/3024 21005KT 6SM BR BKN200
     FM292100 29007KT P6SM BKN040
     FM300800 29008KT P6SM SCT250=



000
FTUS41 KBOX 291437 AAA
TAFBOS
TAF AMD
KBOS 291437Z 2915/3018 23005KT 6SM BR BKN200
     FM292000 29007KT P6SM BKN040
     FM300800 29008KT P6SM SCT250=



000
FTUS41 KBOX 291437 AAB
TAFBDL
TAF AMD
KBDL 291437Z 2915/3018 22004KT 6SM BR BKN080
     FM291800 28007KT P6SM -RA OVC060
     FM292000 28006KT P6SM OVC060
     FM300500 31004KT P6SM SCT250=



000
FTUS41 KBOX 291437 AAA
TAFBAF
TAF AMD
KBAF 291437Z 2915/3012 00000KT 1/2SM FG VV002
     FM291500 18004KT 3SM BR SCT002 BKN080
      TEMPO 2915/2916 1SM BR BKN002
     FM291600 29007KT P6SM -RA OVC050
     FM292000 28005KT P6SM OVC060
     FM300500 31004KT P6SM SCT250=



000
FTUS41 KBOX 291437 AAA
TAFACK
TAF AMD
KACK 291437Z 2915/3012 21015G22KT P6SM BKN250
     FM300200 26013KT P6SM BKN200
     FM300500 30011KT P6SM OVC040
     FM301100 34008KT P6SM BKN050=



000
FTUS41 KBOX 291437 AAA
TAFPVD
TAF AMD
KPVD 291437Z 2915/3012 22006KT P6SM BKN200
     FM292300 29006KT P6SM OVC050
     FM300900 32006KT P6SM SCT250=



000
FTUS41 KBOX 291437 AAA
TAFORH
TAF AMD
KORH 291437Z 2915/3012 24006KT 5SM BR BKN200
     FM291600 25007KT 6SM BR BKN200
     FM291800 27009KT P6SM -RA BKN040
     FM292200 28009KT P6SM BKN040
     FM300600 29007KT P6SM SCT250=



000
FTUS41 KBOX 291437 AAA
TAFMHT
TAF AMD
KMHT 291437Z 2915/3012 24004KT 6SM BR BKN070
     FM291700 28008KT P6SM BKN035
     FM300500 28004KT P6SM SCT250=



000
FTUS41 KBOX 291302 AAA
TAFBDL
TAF AMD
KBDL 291302Z 2913/3018 21004KT 6SM BR BKN120
     FM291500 22005KT P6SM BKN035
     FM291800 26008KT 5SM -SHRA OVC045
     FM292000 28008KT P6SM OVC045
     FM300400 31004KT P6SM BKN150=



000
FTUS41 KBOX 291128
TAFPVD
TAF
KPVD 291128Z 2912/3012 22009KT P6SM FEW020 FEW130 BKN250
     FM291600 22009KT P6SM BKN120
     FM291900 23010KT 5SM BR BKN050
     FM292100 25009KT P6SM BKN040
     FM300200 29007KT P6SM OVC050
     FM300900 32006KT P6SM SCT250=



000
FTUS41 KBOX 291128
TAFBAF
TAF
KBAF 291128Z 2912/3012 00000KT 1/4SM FG VV002
     FM291500 25004KT P6SM BKN015
     FM291600 25005KT P6SM OVC025
     FM291800 27007KT 5SM -SHRA OVC050
     FM292000 28007KT P6SM OVC050
     FM300500 31004KT P6SM SCT150=



000
FTUS41 KBOX 291128
TAFBDL
TAF
KBDL 291128Z 2912/3018 21003KT 1SM BR VV010
     FM291500 21004KT P6SM BKN020
     FM291600 22005KT P6SM BKN035
     FM291800 26008KT 5SM -SHRA OVC045
     FM292000 28008KT P6SM OVC045
     FM300400 31004KT P6SM BKN150=



000
FTUS41 KBOX 291128
TAFORH
TAF
KORH 291128Z 2912/3012 23009KT 1SM BR OVC002
     FM291500 24008KT P6SM BKN020
     FM291600 24009KT P6SM BKN040
     FM291800 26010KT 5SM -SHRA BKN050
     FM291900 26009KT P6SM BKN050
     FM300600 29007KT P6SM SCT250=



000
FTUS41 KBOX 291128
TAFACK
TAF
KACK 291128Z 2912/3012 21012KT P6SM OVC250
     FM291900 22015KT P6SM BKN030
     FM300000 24014G22KT P6SM BKN050
     FM300400 29012KT P6SM OVC050
     FM300900 33009KT P6SM OVC150=



000
FTUS41 KBOX 291128
TAFBOS
TAF
KBOS 291128Z 2912/3018 VRB03KT 6SM BR FEW012 SCT180 OVC250
     FM291400 24009KT 6SM BR BKN045
     FM291800 23009KT 5SM -SHRA BR BKN025
     FM292000 25008KT P6SM BKN050
     FM300100 29009KT P6SM OVC050
     FM300800 29008KT P6SM SCT250
     FM301600 30008KT P6SM FEW050=



000
FTUS41 KBOX 291128
TAFMHT
TAF
KMHT 291128Z 2912/3012 00000KT 1/4SM FG VV003
     FM291300 VRB03KT 1SM BR BKN003 OVC250
     FM291500 24004KT 3SM BR BKN015
     FM291700 26005KT P6SM BKN035
     FM291800 27006KT P6SM BKN025
     FM292100 29005KT P6SM BKN050
     FM300500 28004KT P6SM SCT200=



000
FTUS41 KBOX 290929 AAB
TAFMHT
TAF AMD
KMHT 290929Z 2909/3006 00000KT 1/4SM FG OVC002
     FM291200 00000KT 1SM BR BKN008 BKN250
     FM291400 VRB03KT 3SM BR SCT010 BKN250
     FM291500 25005KT P6SM BKN040
     FM291800 27006KT P6SM BKN035
     FM292100 29005KT P6SM BKN050
     FM300500 28004KT P6SM SCT200=



000
FTUS41 KBOX 290929 AAA
TAFBOS
TAF AMD
KBOS 290929Z 2909/3012 VRB03KT 3SM BR OVC010
     FM291400 22008KT 5SM BR SCT015 BKN250
     FM291700 23009KT P6SM BKN035
     FM292000 25008KT P6SM BKN050
     FM300100 29009KT P6SM OVC050
     FM300800 29008KT P6SM SCT250=



000
FTUS41 KBOX 290929 AAA
TAFPVD
TAF AMD
KPVD 290929Z 2909/3006 20005KT P6SM SCT250
     FM291500 22008KT P6SM BKN250
     FM291800 23010KT P6SM BKN050
     FM292100 25009KT P6SM BKN040
     FM300200 29007KT P6SM OVC050=



000
FTUS41 KBOX 290929 AAA
TAFACK
TAF AMD
KACK 290929Z 2909/3006 19007KT P6SM BKN250
     FM291500 21014KT P6SM BKN250
     FM291800 21015KT P6SM BKN025
     FM300000 24014G22KT P6SM BKN050
     FM300400 29012KT P6SM OVC050=



000
FTUS41 KBOX 290929 AAC
TAFBAF
TAF AMD
KBAF 290929Z 2909/3006 00000KT 1/4SM FG OVC002
     FM291100 00000KT 3SM BR BKN006 BKN250
     FM291300 VRB03KT P6SM SCT006 BKN250
     FM291600 25005KT P6SM OVC030
     FM291800 27007KT 5SM -SHRA OVC050
     FM292000 28007KT P6SM OVC050
     FM300500 31004KT P6SM SCT150=



000
FTUS41 KBOX 290929 AAA
TAFBDL
TAF AMD
KBDL 290929Z 2909/3012 VRB03KT 2SM BR SCT002 OVC006
     FM291100 18004KT 3SM BR BKN006 BKN120
     FM291400 21004KT P6SM BKN250
     FM291800 26008KT 5SM -SHRA OVC045
     FM292000 28008KT P6SM OVC045
     FM300400 31004KT P6SM BKN150=



000
FTUS41 KBOX 290929 AAB
TAFORH
TAF AMD
KORH 290929Z 2909/3006 22008KT 1/2SM FG OVC002
     FM291200 22007KT 3SM BR SCT005 BKN150
     FM291500 24008KT P6SM BKN200
     FM291800 26010KT 5SM -SHRA BKN050
     FM291900 26009KT P6SM BKN050=



000
FTUS41 KBOX 290737 AAB
TAFBAF
TAF AMD
KBAF 290737Z 2908/3006 00000KT 4SM BR BKN005
     FM291000 00000KT 4SM BR SCT005 BKN250
     FM291200 VRB03KT 3SM BR BKN070 BKN250
     FM291300 25004KT P6SM BKN060
     FM291600 25005KT P6SM OVC030
     FM291800 27007KT P6SM OVC050
     FM300500 31004KT P6SM SCT150=



000
FTUS41 KBOX 290644 AAA
TAFBAF
TAF AMD
KBAF 290644Z 2907/3006 00000KT 4SM BR FEW005
     FM290900 00000KT 4SM BR SCT005 BKN250
     FM291200 VRB03KT 3SM BR BKN070 BKN250
     FM291300 25004KT P6SM BKN060
     FM291600 25005KT P6SM OVC030
     FM291800 27007KT P6SM OVC050
     FM300500 31004KT P6SM SCT150=



000
FTUS41 KBOX 290641 AAA
TAFMHT
TAF AMD
KMHT 290641Z 2907/3006 00000KT 1/4SM FG OVC002
     FM290900 00000KT 2SM BR BKN003 BKN250
     FM291300 VRB03KT 3SM BR BKN200 BKN250
     FM291500 24004KT P6SM BKN040
     FM291800 27006KT P6SM BKN025
     FM292100 29005KT P6SM BKN050
     FM300500 28004KT P6SM SCT200=



000
FTUS41 KBOX 290634 AAA
TAFORH
TAF AMD
KORH 290634Z 2907/3006 VRB03KT 1/2SM FG OVC002
     FM291000 20006KT 1SM BR BKN002
     FM291200 21005KT P6SM BKN003 BKN250
     FM291400 23007KT P6SM BKN150 BKN250
     FM292000 27009KT P6SM BKN050=



000
FTUS41 KBOX 290543
TAFPVD
TAF
KPVD 290543Z 2906/3006 21005KT 3SM BR SCT010 BKN070
     FM290800 21005KT 2SM BR BKN008 BKN060
     FM291200 22006KT P6SM SCT015 BKN200
     FM291800 22010G18KT P6SM BKN025
     FM291900 23010KT P6SM BKN050
     FM292300 27008KT P6SM OVC040
     FM300500 31006KT P6SM BKN070=



000
FTUS41 KBOX 290543
TAFACK
TAF
KACK 290543Z 2906/3006 22012KT P6SM SCT015 BKN250
     FM290700 22013KT P6SM SCT015 BKN250
     FM291800 21015G25KT P6SM BKN015
     FM291900 22015G24KT P6SM BKN030
     FM300000 24014KT P6SM BKN050
     FM300400 29012KT P6SM OVC050=



000
FTUS41 KBOX 290543
TAFORH
TAF
KORH 290543Z 2906/3006 18005KT 3SM BR SCT002 BKN250
     FM290800 20006KT 1SM BR BKN002
     FM291200 21005KT P6SM BKN003 BKN250
     FM291400 23007KT P6SM BKN150 BKN250
     FM292000 27009KT P6SM BKN050=



000
FTUS41 KBOX 290543
TAFMHT
TAF
KMHT 290543Z 2906/3006 00000KT 1SM BR OVC004
     FM291100 00000KT 2SM BR BKN003 BKN250
     FM291300 VRB03KT 3SM BR BKN200 BKN250
     FM291500 24004KT P6SM BKN040
     FM291800 27006KT P6SM BKN025
     FM292100 29005KT P6SM BKN050
     FM300500 28004KT P6SM SCT200=



000
FTUS41 KBOX 290543
TAFBOS
TAF
KBOS 290543Z 2906/3012 VRB03KT P6SM OVC006
     FM290800 00000KT 2SM BR OVC004
     FM291300 22007KT P6SM SCT004 BKN250
     FM291800 23009KT P6SM BKN025
     FM291900 24009KT P6SM BKN050
     FM300000 28009KT P6SM OVC050
     FM300800 29008KT P6SM SCT250=



000
FTUS41 KBOX 290543
TAFBAF
TAF
KBAF 290543Z 2906/3006 00000KT P6SM SKC
     FM290800 00000KT 2SM BR SCT005 BKN250
     FM291200 VRB03KT 3SM BR BKN070 BKN250
     FM291300 25004KT P6SM BKN060
     FM291600 25005KT P6SM OVC030
     FM291800 27007KT P6SM OVC050
     FM300500 31004KT P6SM SCT150=



000
FTUS41 KBOX 290543
TAFBDL
TAF
KBDL 290543Z 2906/3012 VRB03KT P6SM BKN250
     FM290700 VRB03KT 2SM BR BKN200 BKN250
     FM291300 19004KT 3SM BR BKN200 BKN250
     FM291400 21004KT P6SM BKN200 BKN250
     FM291800 26008KT P6SM OVC045
     FM300400 31004KT P6SM BKN150=



000
FTUS41 KBOX 290506 AAB
TAFPVD
TAF AMD
KPVD 290506Z 2905/2924 00000KT 3/4SM BR BKN009 OVC200
     FM290800 VRB03KT 2SM BR OVC006
     FM291200 21009KT P6SM SCT006 BKN250
     FM292200 25008KT P6SM BKN050=



000
FTUS41 KBOX 290503 AAA
TAFBOS
TAF AMD
KBOS 290503Z 2905/3006 00000KT P6SM BKN006
     FM291000 20006KT P6SM SCT006 BKN250
     FM291800 23009KT P6SM BKN050
     FM292200 28008KT P6SM OVC050=



000
FTUS41 KBOX 290447 AAA
TAFORH
TAF AMD
KORH 290447Z 2905/2924 VRB03KT 1 1/2SM BR FEW003 BKN250
     FM290700 VRB03KT 1/2SM FG BKN003 OVC250
     FM291100 22006KT P6SM BKN200
     FM292000 26009KT P6SM OVC050=



000
FTUS41 KBOX 290400 AAA
TAFPVD
TAF AMD
KPVD 290400Z 2904/2924 00000KT 6SM BR BKN010 OVC200
     FM290600 VRB03KT 4SM BR OVC006
     FM291200 21009KT P6SM SCT006 BKN250
     FM292200 25008KT P6SM BKN050=



000
FTUS41 KBOX 290318 AAB
TAFMHT
TAF AMD
KMHT 290318Z 2903/2924 03004KT 3SM BR OVC004
     FM290700 VRB03KT P6SM SCT004 BKN250
     FM291300 23006KT P6SM BKN150=



000
FTUS41 KBOX 290051 AAA
TAFMHT
TAF AMD
KMHT 290051Z 2901/2924 35004KT P6SM BKN009 OVC250
     FM290400 VRB03KT P6SM SCT009 BKN250
     FM291300 23006KT P6SM BKN150=



000
FTUS41 KBOX 282325
TAFBDL
TAF
KBDL 282325Z 2900/3006 18006KT P6SM BKN250
     FM291400 23006KT P6SM BKN060
     FM300300 29005KT P6SM BKN250=



000
FTUS41 KBOX 282325
TAFMHT
TAF
KMHT 282325Z 2900/2924 00000KT P6SM BKN250
     FM291300 23006KT P6SM BKN150=



000
FTUS41 KBOX 282325
TAFACK
TAF
KACK 282325Z 2900/2924 16005KT P6SM SCT250
     FM290800 22007KT P6SM FEW015 SCT250
     FM291400 21014KT P6SM BKN003 BKN015
     FM291800 21014KT P6SM BKN025=



000
FTUS41 KBOX 282325
TAFBOS
TAF
KBOS 282325Z 2900/3006 00000KT P6SM BKN150
     FM290700 20006KT P6SM FEW015 SCT250
     FM291800 23009KT P6SM BKN050
     FM292200 28008KT P6SM OVC050=



000
FTUS41 KBOX 282325
TAFORH
TAF
KORH 282325Z 2900/2924 16005KT P6SM SCT250
     FM290900 22009KT P6SM BKN200
     FM292000 26009KT P6SM OVC050=



000
FTUS41 KBOX 282325
TAFPVD
TAF
KPVD 282325Z 2900/2924 18005KT P6SM BKN140
     FM291300 21009KT P6SM SCT015 BKN250
     FM292200 25008KT P6SM BKN050=



000
FTUS41 KBOX 282325
TAFBAF
TAF
KBAF 282325Z 2900/2924 18004KT P6SM BKN250
     FM291400 23005KT P6SM BKN060
     FM292300 29005KT P6SM BKN090=



    US Dept of Commerce
    National Oceanic and Atmospheric Administration
    National Weather Service
    1325 East West Highway
    Silver Spring, MD 20910
    Page Author: NWS Internet Services Team
Disclaimer
Information Quality
Credits
Glossary
Privacy Policy
Freedom of Information Act (FOIA)
About Us
Career Opportunities